Time;durP1;ratioP1;P1;durP2;ratioP2;P2;SDS_P1;SDS_P2;PMS_P1;PMS_P2;Temp;Humidity;BMP_temperature;BMP_pressure;BME280_temperature;BME280_humidity;BME280_pressure;Samples;Min_cycle;Max_cycle;Signal;HPM_P1;HPM_P2
2022/01/27 00:01:58;;;;;;;15.63;5.85;;;;;;;;;;6216071;28;20220;-82
2022/01/27 00:05:23;;;;;;;20.42;6.25;;;;;;;;;;6244998;28;20049;-82
2022/01/27 00:08:35;;;;;;;16.98;5.70;;;;;;;;;;6244165;28;20123;-83
2022/01/27 00:11:38;;;;;;;13.55;5.57;;;;;;;;;;6265505;28;20065;-85
2022/01/27 00:14:45;;;;;;;16.02;6.80;;;;;;;;;;6283729;28;20053;-83
2022/01/27 00:17:56;;;;;;;13.85;5.78;;;;;;;;;;6269756;28;20162;-84
2022/01/27 00:20:58;;;;;;;16.25;6.13;;;;;;;;;;6267232;28;20042;-83
2022/01/27 00:24:00;;;;;;;17.83;5.97;;;;;;;;;;6266954;28;20041;-83
2022/01/27 00:27:02;;;;;;;17.38;6.35;;;;;;;;;;6269911;28;20106;-84
2022/01/27 00:30:06;;;;;;;15.85;6.35;;;;;;;;;;6266766;28;20130;-81
2022/01/27 00:33:08;;;;;;;20.70;7.13;;;;;;;;;;6265612;28;20122;-86
2022/01/27 00:36:10;;;;;;;16.30;6.38;;;;;;;;;;6263906;28;20047;-82
2022/01/27 00:39:12;;;;;;;21.25;6.32;;;;;;;;;;6264816;28;20041;-82
2022/01/27 00:42:13;;;;;;;17.33;6.75;;;;;;;;;;6281272;28;20044;-84
2022/01/27 00:45:15;;;;;;;22.65;10.77;;;;;;;;;;6257314;28;20396;-84
2022/01/27 00:48:18;;;;;;;20.00;7.22;;;;;;;;;;6266546;28;20128;-84
2022/01/27 00:51:22;;;;;;;21.13;7.75;;;;;;;;;;6280457;28;20202;-85
2022/01/27 00:54:27;;;;;;;21.75;6.78;;;;;;;;;;6269281;28;20132;-82
2022/01/27 01:00:42;;;;;;;20.73;7.63;;;;;;;;;;6254075;28;20045;-80
2022/01/27 01:03:47;;;;;;;19.42;6.55;;;;;;;;;;6266210;28;20182;-83
2022/01/27 01:06:50;;;;;;;20.15;7.90;;;;;;;;;;6250973;28;20049;-83
2022/01/27 01:16:32;;;;;;;23.20;8.70;;;;;;;;;;6246779;28;20044;-84
2022/01/27 01:19:48;;;;;;;23.92;7.78;;;;;;;;;;6255225;28;20379;-83
2022/01/27 01:32:56;;;;;;;21.73;8.18;;;;;;;;;;6265546;28;20033;-84
2022/01/27 01:36:11;;;;;;;24.30;8.02;;;;;;;;;;6282356;28;20174;-82
2022/01/27 01:39:14;;;;;;;27.08;9.07;;;;;;;;;;6283024;28;20113;-81
2022/01/27 01:42:15;;;;;;;27.98;9.00;;;;;;;;;;6267645;28;20045;-83
2022/01/27 01:45:19;;;;;;;23.17;8.38;;;;;;;;;;6281319;28;20529;-81
2022/01/27 01:48:20;;;;;;;;;;;;;;;;;;6268601;28;20512;-83
2022/01/27 01:51:25;;;;;;;26.95;8.90;;;;;;;;;;6283276;28;19921;-83
2022/01/27 01:54:27;;;;;;;25.70;7.97;;;;;;;;;;6265664;28;20175;-83
2022/01/27 01:57:29;;;;;;;20.00;7.90;;;;;;;;;;6266187;28;20047;-83
2022/01/27 02:00:30;;;;;;;24.27;8.90;;;;;;;;;;6276669;28;20244;-83
2022/01/27 02:03:32;;;;;;;26.30;8.85;;;;;;;;;;6278405;28;20056;-84
2022/01/27 02:06:41;;;;;;;22.55;6.78;;;;;;;;;;6276883;28;20056;-82
2022/01/27 02:10:16;;;;;;;25.58;7.68;;;;;;;;;;6247201;28;20068;-83
2022/01/27 02:19:57;;;;;;;25.65;7.93;;;;;;;;;;6254067;28;20041;-84
2022/01/27 02:22:59;;;;;;;25.23;8.82;;;;;;;;;;6258932;28;20038;-83
2022/01/27 02:26:01;;;;;;;27.77;8.40;;;;;;;;;;6264086;28;20128;-85
2022/01/27 02:29:03;;;;;;;17.58;7.80;;;;;;;;;;6281223;28;20056;-83
2022/01/27 02:32:04;;;;;;;23.30;7.95;;;;;;;;;;6256205;28;20068;-80
2022/01/27 02:35:07;;;;;;;23.25;7.97;;;;;;;;;;6245863;28;20041;-84
2022/01/27 02:38:08;;;;;;;27.02;9.20;;;;;;;;;;6257778;28;20037;-84
2022/01/27 02:41:11;;;;;;;26.38;8.38;;;;;;;;;;6296793;28;20074;-84
2022/01/27 02:44:39;;;;;;;26.63;8.15;;;;;;;;;;6283485;28;20064;-84
2022/01/27 02:47:42;;;;;;;26.05;7.57;;;;;;;;;;6220033;28;20570;-81
2022/01/27 02:50:44;;;;;;;29.23;8.70;;;;;;;;;;6247372;28;20044;-83
2022/01/27 02:53:46;;;;;;;23.85;7.40;;;;;;;;;;6262741;28;20041;-82
2022/01/27 02:56:48;;;;;;;20.77;7.88;;;;;;;;;;6263766;28;20127;-82
2022/01/27 02:59:50;;;;;;;24.02;8.10;;;;;;;;;;6266527;28;20454;-83
2022/01/27 03:02:52;;;;;;;24.00;7.73;;;;;;;;;;6269990;28;20178;-81
2022/01/27 03:05:54;;;;;;;24.40;7.97;;;;;;;;;;6270656;28;20178;-84
2022/01/27 03:08:55;;;;;;;22.17;7.72;;;;;;;;;;6251234;28;20502;-84
2022/01/27 03:12:01;;;;;;;27.35;9.52;;;;;;;;;;6286099;28;20041;-82
2022/01/27 03:15:04;;;;;;;20.70;7.55;;;;;;;;;;6269960;28;20064;-83
2022/01/27 03:18:06;;;;;;;28.48;10.15;;;;;;;;;;6286354;28;20522;-84
2022/01/27 03:21:09;;;;;;;27.60;9.18;;;;;;;;;;6252206;28;20048;-84
2022/01/27 03:24:11;;;;;;;32.08;9.25;;;;;;;;;;6268995;28;20183;-84
2022/01/27 03:27:21;;;;;;;28.17;8.88;;;;;;;;;;6290367;28;20048;-82
2022/01/27 03:30:23;;;;;;;32.80;10.05;;;;;;;;;;6282172;28;20052;-81
2022/01/27 03:33:25;;;;;;;41.85;12.07;;;;;;;;;;6273328;28;20126;-85
2022/01/27 03:36:26;;;;;;;37.72;11.48;;;;;;;;;;6285535;28;20048;-82
2022/01/27 03:39:28;;;;;;;37.90;10.95;;;;;;;;;;6270969;28;20151;-83
2022/01/27 03:42:30;;;;;;;32.90;10.23;;;;;;;;;;6270411;28;20049;-84
2022/01/27 03:45:32;;;;;;;31.98;9.88;;;;;;;;;;6267527;28;20586;-83
2022/01/27 03:48:34;;;;;;;31.50;11.02;;;;;;;;;;6252390;28;20056;-83
2022/01/27 03:51:35;;;;;;;36.22;11.55;;;;;;;;;;6268310;28;20045;-82
2022/01/27 03:54:37;;;;;;;34.22;11.23;;;;;;;;;;6284397;28;20040;-83
2022/01/27 03:57:39;;;;;;;34.47;10.40;;;;;;;;;;6268489;28;20108;-83
2022/01/27 04:00:41;;;;;;;32.65;10.70;;;;;;;;;;6269393;28;20132;-84
2022/01/27 04:03:44;;;;;;;38.53;12.00;;;;;;;;;;6269483;28;20152;-83
2022/01/27 04:06:49;;;;;;;34.83;10.60;;;;;;;;;;6269062;28;20135;-82
2022/01/27 04:09:51;;;;;;;38.03;11.52;;;;;;;;;;6268965;28;20136;-83
2022/01/27 04:12:53;;;;;;;30.00;9.15;;;;;;;;;;6270353;28;20690;-83
2022/01/27 04:15:54;;;;;;;31.58;9.63;;;;;;;;;;6266748;28;20053;-82
2022/01/27 04:18:56;;;;;;;30.77;9.30;;;;;;;;;;6270694;28;20139;-82
2022/01/27 04:21:57;;;;;;;34.17;8.77;;;;;;;;;;6268762;28;20040;-83
2022/01/27 04:24:59;;;;;;;36.47;10.88;;;;;;;;;;6250603;28;20033;-83
2022/01/27 04:28:05;;;;;;;33.55;9.95;;;;;;;;;;6253457;28;20105;-84
2022/01/27 04:31:09;;;;;;;31.02;9.68;;;;;;;;;;6262328;28;20118;-83
2022/01/27 04:34:12;;;;;;;33.53;10.43;;;;;;;;;;6258702;28;20041;-82
2022/01/27 04:37:14;;;;;;;30.65;10.02;;;;;;;;;;6238408;28;20441;-83
2022/01/27 04:40:17;;;;;;;33.47;10.23;;;;;;;;;;6231377;28;20044;-82
2022/01/27 04:43:37;;;;;;;35.43;10.77;;;;;;;;;;6272532;28;20122;-82
2022/01/27 04:49:44;;;;;;;28.40;10.20;;;;;;;;;;6266522;28;20097;-85
2022/01/27 04:52:48;;;;;;;30.60;8.85;;;;;;;;;;6266913;28;20060;-83
2022/01/27 04:55:50;;;;;;;32.38;9.85;;;;;;;;;;6265547;28;20041;-83
2022/01/27 04:58:56;;;;;;;29.70;9.52;;;;;;;;;;6264529;28;20077;-84
2022/01/27 05:02:06;;;;;;;31.70;9.88;;;;;;;;;;6279759;28;20040;-86
2022/01/27 05:05:08;;;;;;;26.02;8.50;;;;;;;;;;6247724;28;20096;-81
2022/01/27 05:08:21;;;;;;;26.88;8.52;;;;;;;;;;6269504;28;20123;-85
2022/01/27 05:14:27;;;;;;;27.15;8.40;;;;;;;;;;6269738;28;20110;-84
2022/01/27 05:17:29;;;;;;;29.85;9.52;;;;;;;;;;6268722;28;20411;-85
2022/01/27 05:20:31;;;;;;;28.15;10.10;;;;;;;;;;6266766;28;20124;-82
2022/01/27 05:23:32;;;;;;;24.75;7.65;;;;;;;;;;6251158;28;20051;-83
2022/01/27 05:26:35;;;;;;;29.98;8.93;;;;;;;;;;6269171;28;20398;-83
2022/01/27 05:29:36;;;;;;;28.88;8.60;;;;;;;;;;6283686;28;20120;-84
2022/01/27 05:32:38;;;;;;;31.25;8.27;;;;;;;;;;6266463;28;20052;-83
2022/01/27 05:35:40;;;;;;;25.38;8.00;;;;;;;;;;6268807;28;20469;-86
2022/01/27 05:38:42;;;;;;;26.60;8.43;;;;;;;;;;6266067;28;20518;-83
2022/01/27 05:41:43;;;;;;;20.08;6.53;;;;;;;;;;6249576;28;20049;-84
2022/01/27 05:44:45;;;;;;;27.38;7.05;;;;;;;;;;6268882;28;20048;-84
2022/01/27 05:47:47;;;;;;;24.98;8.52;;;;;;;;;;6288497;28;20568;-84
2022/01/27 05:50:48;;;;;;;30.63;9.07;;;;;;;;;;6255932;28;20052;-84
2022/01/27 05:53:50;;;;;;;26.77;8.80;;;;;;;;;;6272192;28;20122;-83
2022/01/27 05:56:52;;;;;;;25.48;8.13;;;;;;;;;;6273679;28;20505;-80
2022/01/27 05:59:53;;;;;;;23.88;7.82;;;;;;;;;;6270108;28;20049;-83
2022/01/27 06:02:55;;;;;;;23.63;8.60;;;;;;;;;;6268557;28;20086;-83
2022/01/27 06:05:57;;;;;;;27.98;8.15;;;;;;;;;;6267238;28;20563;-81
2022/01/27 06:08:58;;;;;;;26.17;7.90;;;;;;;;;;6281287;28;20081;-81
2022/01/27 06:12:00;;;;;;;25.85;9.07;;;;;;;;;;6266881;28;20071;-84
2022/01/27 06:15:02;;;;;;;26.90;8.13;;;;;;;;;;6282861;28;20410;-83
2022/01/27 06:18:04;;;;;;;26.48;9.35;;;;;;;;;;6285951;28;20045;-82
2022/01/27 06:21:07;;;;;;;26.40;8.77;;;;;;;;;;6268431;28;20166;-82
2022/01/27 06:24:09;;;;;;;24.20;8.32;;;;;;;;;;6267609;28;20110;-84
2022/01/27 06:27:11;;;;;;;26.67;8.43;;;;;;;;;;6267781;28;20119;-80
2022/01/27 06:30:13;;;;;;;24.38;8.10;;;;;;;;;;6266565;28;20045;-82
2022/01/27 06:33:14;;;;;;;25.30;9.18;;;;;;;;;;6284165;28;20051;-83
2022/01/27 06:36:16;;;;;;;29.83;8.82;;;;;;;;;;6272607;28;20037;-84
2022/01/27 06:39:17;;;;;;;24.10;8.05;;;;;;;;;;6271882;28;20128;-83
2022/01/27 06:42:19;;;;;;;31.73;9.30;;;;;;;;;;6272208;28;20402;-82
2022/01/27 06:45:21;;;;;;;28.58;8.85;;;;;;;;;;6269497;28;20290;-83
2022/01/27 06:48:22;;;;;;;24.88;9.40;;;;;;;;;;6270462;28;20041;-84
2022/01/27 06:51:26;;;;;;;31.58;9.20;;;;;;;;;;6281017;28;20041;-82
2022/01/27 06:54:28;;;;;;;29.30;8.15;;;;;;;;;;6295460;28;20436;-82
2022/01/27 06:57:30;;;;;;;28.77;8.40;;;;;;;;;;6272572;28;20041;-83
2022/01/27 07:00:31;;;;;;;27.95;8.18;;;;;;;;;;6269447;28;20066;-83
2022/01/27 07:03:33;;;;;;;27.85;8.82;;;;;;;;;;6272196;28;20064;-85
2022/01/27 07:06:35;;;;;;;29.13;7.60;;;;;;;;;;6286116;28;20057;-83
2022/01/27 07:09:37;;;;;;;32.95;8.85;;;;;;;;;;6252875;28;20100;-85
2022/01/27 07:12:42;;;;;;;28.10;8.82;;;;;;;;;;6280493;28;20049;-82
2022/01/27 07:15:44;;;;;;;26.98;7.55;;;;;;;;;;6272047;28;20052;-83
2022/01/27 07:18:46;;;;;;;25.05;9.00;;;;;;;;;;6245859;28;20123;-83
2022/01/27 07:21:47;;;;;;;33.13;10.63;;;;;;;;;;6244820;28;20041;-81
2022/01/27 07:24:49;;;;;;;23.75;8.38;;;;;;;;;;6244338;28;20406;-83
2022/01/27 07:27:51;;;;;;;32.08;9.73;;;;;;;;;;6245228;28;20517;-84
2022/01/27 07:30:53;;;;;;;26.55;7.68;;;;;;;;;;6258345;28;20045;-84
2022/01/27 07:33:55;;;;;;;25.13;9.30;;;;;;;;;;6267958;28;20045;-83
2022/01/27 07:37:00;;;;;;;37.03;10.18;;;;;;;;;;6248191;28;20055;-81
2022/01/27 07:40:02;;;;;;;18.98;6.28;;;;;;;;;;6265582;28;20129;-80
2022/01/27 07:43:04;;;;;;;28.50;9.43;;;;;;;;;;6264181;28;20044;-80
2022/01/27 07:46:07;;;;;;;33.22;10.00;;;;;;;;;;6265850;28;20122;-82
2022/01/27 07:49:09;;;;;;;27.30;9.25;;;;;;;;;;6265824;28;20067;-81
2022/01/27 07:52:11;;;;;;;32.80;10.10;;;;;;;;;;6248423;28;20410;-81
2022/01/27 07:55:12;;;;;;;26.13;8.55;;;;;;;;;;6266169;28;20179;-81
2022/01/27 07:58:14;;;;;;;27.10;10.07;;;;;;;;;;6267336;28;20124;-82
2022/01/27 08:01:16;;;;;;;24.38;7.97;;;;;;;;;;6266833;28;20041;-82
2022/01/27 08:04:18;;;;;;;32.00;8.82;;;;;;;;;;6267495;28;20801;-81
2022/01/27 08:07:19;;;;;;;28.20;8.73;;;;;;;;;;6269271;28;20550;-84
2022/01/27 08:10:25;;;;;;;28.73;9.05;;;;;;;;;;6267294;28;20143;-83
2022/01/27 08:13:27;;;;;;;34.38;10.27;;;;;;;;;;6269698;28;20206;-84
2022/01/27 08:16:28;;;;;;;26.67;9.35;;;;;;;;;;6258018;28;20055;-83
2022/01/27 08:19:30;;;;;;;25.38;9.40;;;;;;;;;;6278645;28;20407;-83
2022/01/27 08:22:36;;;;;;;23.33;8.77;;;;;;;;;;6266854;28;20056;-85
2022/01/27 08:25:38;;;;;;;27.75;8.73;;;;;;;;;;6284759;28;20048;-83
2022/01/27 08:28:53;;;;;;;26.23;8.70;;;;;;;;;;6283256;28;20198;-84
2022/01/27 08:34:57;;;;;;;29.38;8.82;;;;;;;;;;6267310;28;20075;-85
2022/01/27 08:37:59;;;;;;;30.48;9.90;;;;;;;;;;6265507;28;20053;-84
2022/01/27 08:41:01;;;;;;;27.92;8.68;;;;;;;;;;6256985;28;20056;-82
2022/01/27 08:44:02;;;;;;;29.25;9.07;;;;;;;;;;6277358;28;20486;-81
2022/01/27 08:47:05;;;;;;;26.50;7.88;;;;;;;;;;6267095;28;20037;-83
2022/01/27 08:50:09;;;;;;;32.70;8.52;;;;;;;;;;6267982;28;20501;-83
2022/01/27 08:53:11;;;;;;;26.83;8.70;;;;;;;;;;6248142;28;20044;-84
2022/01/27 08:56:16;;;;;;;26.00;8.82;;;;;;;;;;6264588;28;20069;-84
2022/01/27 08:59:19;;;;;;;21.50;8.23;;;;;;;;;;6281401;28;20131;-84
2022/01/27 09:02:21;;;;;;;22.98;8.02;;;;;;;;;;6267163;28;20564;-82
2022/01/27 09:05:22;;;;;;;27.80;9.43;;;;;;;;;;6268489;28;20045;-84
2022/01/27 09:08:24;;;;;;;31.63;9.35;;;;;;;;;;6250735;28;20394;-81
2022/01/27 09:11:28;;;;;;;21.33;7.68;;;;;;;;;;6281347;28;20111;-84
2022/01/27 09:14:31;;;;;;;25.65;9.27;;;;;;;;;;6264687;28;20049;-84
2022/01/27 09:17:39;;;;;;;28.90;7.85;;;;;;;;;;6283309;28;20180;-82
2022/01/27 09:20:41;;;;;;;28.48;9.15;;;;;;;;;;6280838;28;20047;-82
2022/01/27 09:23:43;;;;;;;25.00;8.93;;;;;;;;;;6266152;28;20047;-86
2022/01/27 09:29:48;;;;;;;27.60;9.20;;;;;;;;;;6265284;28;20084;-83
2022/01/27 09:32:50;;;;;;;28.27;9.85;;;;;;;;;;6263535;28;20048;-82
2022/01/27 09:35:52;;;;;;;32.45;9.15;;;;;;;;;;6266564;28;20128;-82
2022/01/27 09:38:53;;;;;;;26.08;8.95;;;;;;;;;;6260598;28;20048;-82
2022/01/27 09:41:56;;;;;;;29.73;10.00;;;;;;;;;;6264410;28;20051;-82
2022/01/27 09:45:02;;;;;;;26.40;8.68;;;;;;;;;;6262894;28;20044;-82
2022/01/27 09:48:12;;;;;;;28.05;9.88;;;;;;;;;;6268595;28;20128;-84
2022/01/27 09:51:37;;;;;;;24.35;8.18;;;;;;;;;;6276163;28;20065;-83
2022/01/27 09:54:39;;;;;;;29.83;9.15;;;;;;;;;;6280427;28;20119;-83
2022/01/27 09:57:40;;;;;;;27.83;9.65;;;;;;;;;;6267952;28;20033;-84
2022/01/27 10:00:42;;;;;;;32.88;10.95;;;;;;;;;;6260963;28;20053;-84
2022/01/27 10:03:57;;;;;;;29.05;9.32;;;;;;;;;;6264813;28;20044;-84
2022/01/27 10:06:58;;;;;;;27.50;10.02;;;;;;;;;;6266265;28;20128;-83
2022/01/27 10:10:18;;;;;;;27.30;9.55;;;;;;;;;;6280093;28;20068;-83
2022/01/27 10:13:32;;;;;;;31.83;10.88;;;;;;;;;;6274760;28;20076;-84
2022/01/27 10:16:36;;;;;;;27.35;10.88;;;;;;;;;;6270456;28;20425;-85
2022/01/27 10:19:39;;;;;;;31.25;10.75;;;;;;;;;;6263513;28;20045;-84
2022/01/27 10:22:41;;;;;;;30.70;11.55;;;;;;;;;;6279703;28;20048;-84
2022/01/27 10:25:47;;;;;;;20.90;8.50;;;;;;;;;;6261567;28;20397;-82
2022/01/27 10:29:05;;;;;;;29.33;9.43;;;;;;;;;;6247706;28;20084;-83
2022/01/27 10:32:08;;;;;;;24.08;8.13;;;;;;;;;;6263482;28;20037;-88
2022/01/27 10:35:12;;;;;;;29.67;9.68;;;;;;;;;;6263530;28;20045;-81
2022/01/27 10:38:16;;;;;;;27.92;9.48;;;;;;;;;;6278672;28;20049;-82
2022/01/27 10:41:17;;;;;;;27.33;9.55;;;;;;;;;;6261888;28;20041;-83
2022/01/27 10:44:19;;;;;;;27.30;10.68;;;;;;;;;;6276938;28;20421;-84
2022/01/27 10:47:32;;;;;;;29.58;11.18;;;;;;;;;;6264015;28;20049;-87
2022/01/27 10:50:48;;;;;;;24.83;8.88;;;;;;;;;;6277688;28;20516;-83
2022/01/27 10:54:04;;;;;;;27.30;9.05;;;;;;;;;;6264850;28;20112;-80
2022/01/27 10:57:16;;;;;;;24.55;8.98;;;;;;;;;;6263927;28;20490;-81
2022/01/27 11:00:20;;;;;;;29.27;10.02;;;;;;;;;;6267838;28;20401;-80
2022/01/27 11:03:22;;;;;;;28.15;11.15;;;;;;;;;;6262981;28;20101;-82
2022/01/27 11:06:26;;;;;;;20.92;7.38;;;;;;;;;;6260092;28;20060;-80
2022/01/27 11:09:29;;;;;;;28.52;9.88;;;;;;;;;;6249189;28;20065;-81
2022/01/27 11:12:30;;;;;;;;;;;;;;;;;;6280157;28;20118;-82
2022/01/27 11:15:33;;;;;;;27.40;8.95;;;;;;;;;;6261002;28;19988;-80
2022/01/27 11:18:34;;;;;;;22.33;8.07;;;;;;;;;;6257953;28;20056;-81
2022/01/27 11:21:39;;;;;;;28.80;9.68;;;;;;;;;;6271608;28;20487;-81
2022/01/27 11:28:00;;;;;;;20.98;7.95;;;;;;;;;;6269699;28;20075;-80
2022/01/27 11:31:26;;;;;;;24.50;8.95;;;;;;;;;;6274829;28;20041;-81
2022/01/27 11:34:51;;;;;;;21.33;8.18;;;;;;;;;;6269100;28;20080;-81
2022/01/27 11:37:56;;;;;;;17.58;7.15;;;;;;;;;;6271345;28;20105;-83
2022/01/27 11:40:58;;;;;;;21.13;7.53;;;;;;;;;;6270942;28;20095;-82
2022/01/27 11:44:32;;;;;;;19.10;7.80;;;;;;;;;;6271628;28;20067;-84
2022/01/27 11:47:49;;;;;;;14.57;5.65;;;;;;;;;;6266035;28;20060;-83
2022/01/27 11:50:54;;;;;;;18.02;6.32;;;;;;;;;;6288362;28;20041;-80
2022/01/27 11:53:56;;;;;;;16.48;6.32;;;;;;;;;;6287625;28;20036;-81
2022/01/27 11:56:57;;;;;;;14.48;5.28;;;;;;;;;;6289552;28;20064;-79
2022/01/27 12:00:10;;;;;;;9.70;4.13;;;;;;;;;;6292026;28;20102;-78
2022/01/27 12:03:15;;;;;;;11.60;4.45;;;;;;;;;;6277808;28;20055;-78
2022/01/27 12:06:21;;;;;;;11.20;4.57;;;;;;;;;;6279822;28;20048;-79
2022/01/27 12:09:26;;;;;;;9.52;3.95;;;;;;;;;;6266296;28;20052;-79
2022/01/27 12:12:32;;;;;;;11.93;4.95;;;;;;;;;;6291233;28;20358;-78
2022/01/27 12:16:23;;;;;;;7.72;3.58;;;;;;;;;;6265810;28;20065;-79
2022/01/27 12:19:56;;;;;;;11.02;4.70;;;;;;;;;;6285129;28;20059;-82
2022/01/27 12:23:04;;;;;;;19.02;5.78;;;;;;;;;;6272733;28;20105;-78
2022/01/27 12:26:05;;;;;;;12.02;5.32;;;;;;;;;;6271216;28;20118;-79
2022/01/27 12:29:07;;;;;;;8.32;3.42;;;;;;;;;;6271192;28;20048;-79
2022/01/27 12:32:24;;;;;;;8.80;3.55;;;;;;;;;;6266469;28;20041;-77
2022/01/27 12:35:25;;;;;;;9.23;3.67;;;;;;;;;;6264456;28;20049;-80
2022/01/27 12:38:27;;;;;;;6.30;2.47;;;;;;;;;;6266663;28;20100;-81
2022/01/27 12:41:36;;;;;;;6.18;2.78;;;;;;;;;;6258487;28;20049;-80
2022/01/27 12:44:51;;;;;;;4.03;2.03;;;;;;;;;;6260168;28;20052;-81
2022/01/27 12:47:54;;;;;;;;;;;;;;;;;;6250482;28;20575;-80
2022/01/27 12:50:58;;;;;;;3.90;2.50;;;;;;;;;;6268336;28;19929;-82
2022/01/27 12:54:02;;;;;;;3.65;1.85;;;;;;;;;;6283053;28;20406;-81
2022/01/27 12:57:05;;;;;;;5.57;2.10;;;;;;;;;;6268526;28;20051;-83
2022/01/27 13:00:10;;;;;;;4.32;2.25;;;;;;;;;;6282371;28;20033;-80
2022/01/27 13:03:12;;;;;;;2.95;1.52;;;;;;;;;;6284251;28;20047;-82
2022/01/27 13:06:14;;;;;;;3.55;1.60;;;;;;;;;;6267271;28;20045;-81
2022/01/27 13:09:16;;;;;;;3.30;1.90;;;;;;;;;;6249792;28;20048;-82
2022/01/27 13:12:23;;;;;;;3.45;1.90;;;;;;;;;;6269267;28;20041;-81
2022/01/27 13:15:27;;;;;;;4.25;1.60;;;;;;;;;;6282385;28;20040;-82
2022/01/27 13:21:42;;;;;;;3.83;1.73;;;;;;;;;;6268268;28;20072;-80
2022/01/27 13:24:55;;;;;;;4.75;1.40;;;;;;;;;;6266028;28;20120;-82
2022/01/27 13:28:07;;;;;;;2.08;1.13;;;;;;;;;;6266630;28;20049;-79
2022/01/27 13:31:12;;;;;;;3.58;1.20;;;;;;;;;;6289603;28;20036;-79
2022/01/27 13:34:15;;;;;;;2.38;1.05;;;;;;;;;;6278680;28;20037;-82
2022/01/27 13:37:31;;;;;;;2.20;1.23;;;;;;;;;;6284517;28;20108;-79
2022/01/27 13:44:04;;;;;;;1.90;0.90;;;;;;;;;;6283768;28;20045;-79
2022/01/27 13:47:06;;;;;;;2.00;0.90;;;;;;;;;;6275732;28;20139;-82
2022/01/27 13:50:12;;;;;;;2.13;0.80;;;;;;;;;;6266642;28;20033;-82
2022/01/27 13:53:13;;;;;;;2.30;1.10;;;;;;;;;;6280460;28;20120;-81
2022/01/27 13:56:15;;;;;;;1.65;0.95;;;;;;;;;;6267550;28;20041;-81
2022/01/27 13:59:21;;;;;;;2.30;1.20;;;;;;;;;;6266731;28;20124;-80
2022/01/27 14:03:06;;;;;;;1.63;0.82;;;;;;;;;;6243485;28;20041;-82
2022/01/27 14:06:08;;;;;;;1.40;0.90;;;;;;;;;;6254156;28;20037;-82
2022/01/27 14:09:15;;;;;;;2.15;0.90;;;;;;;;;;6253738;28;20174;-78
2022/01/27 14:12:20;;;;;;;1.88;0.90;;;;;;;;;;6275936;28;20496;-79
2022/01/27 14:15:39;;;;;;;1.30;0.70;;;;;;;;;;6263788;28;20600;-77
2022/01/27 14:18:43;;;;;;;2.03;1.00;;;;;;;;;;6263326;28;20129;-80
2022/01/27 14:21:47;;;;;;;2.80;1.00;;;;;;;;;;6269562;28;20132;-81
2022/01/27 14:25:16;;;;;;;1.13;1.05;;;;;;;;;;6262780;28;20128;-83
2022/01/27 14:28:18;;;;;;;1.13;0.75;;;;;;;;;;6266661;28;20045;-80
2022/01/27 14:31:20;;;;;;;2.22;1.10;;;;;;;;;;6265998;28;20068;-80
2022/01/27 14:34:37;;;;;;;3.85;1.60;;;;;;;;;;6267720;28;20061;-78
2022/01/27 14:37:41;;;;;;;3.10;1.15;;;;;;;;;;6265883;28;20132;-81
2022/01/27 14:40:45;;;;;;;1.33;0.90;;;;;;;;;;6265460;28;20052;-81
2022/01/27 14:43:49;;;;;;;3.30;1.30;;;;;;;;;;6273417;28;20383;-80
2022/01/27 14:46:57;;;;;;;4.18;2.17;;;;;;;;;;6266465;28;20686;-81
2022/01/27 14:49:58;;;;;;;3.53;1.58;;;;;;;;;;6265555;28;20045;-82
2022/01/27 14:53:01;;;;;;;2.08;1.00;;;;;;;;;;6266335;28;20044;-82
2022/01/27 14:56:04;;;;;;;2.95;1.42;;;;;;;;;;6269152;28;20045;-79
2022/01/27 14:59:08;;;;;;;3.35;1.35;;;;;;;;;;6271431;28;20060;-80
2022/01/27 15:02:09;;;;;;;3.03;1.70;;;;;;;;;;6270967;28;20117;-82
2022/01/27 15:05:12;;;;;;;1.55;1.17;;;;;;;;;;6270149;28;20084;-82
2022/01/27 15:08:14;;;;;;;2.72;1.27;;;;;;;;;;6263670;28;20653;-82
2022/01/27 15:11:16;;;;;;;2.20;1.10;;;;;;;;;;6268690;28;20128;-82
2022/01/27 15:20:58;;;;;;;3.40;1.70;;;;;;;;;;6269474;28;20052;-81
2022/01/27 15:24:00;;;;;;;2.60;1.48;;;;;;;;;;6269989;28;20367;-81
2022/01/27 15:27:04;;;;;;;3.15;2.03;;;;;;;;;;6268198;28;20041;-83
2022/01/27 15:30:07;;;;;;;3.55;1.95;;;;;;;;;;6244428;28;20502;-82
2022/01/27 15:33:10;;;;;;;4.28;1.75;;;;;;;;;;6266848;28;20692;-83
2022/01/27 15:36:13;;;;;;;2.60;1.85;;;;;;;;;;6277600;28;20510;-82
2022/01/27 15:39:38;;;;;;;3.08;1.77;;;;;;;;;;6261110;28;20053;-82
2022/01/27 15:42:41;;;;;;;2.67;1.40;;;;;;;;;;6259426;28;20098;-81
2022/01/27 15:45:42;;;;;;;3.13;1.70;;;;;;;;;;6260879;28;20037;-81
2022/01/27 15:48:45;;;;;;;3.80;2.10;;;;;;;;;;6277836;28;20044;-79
2022/01/27 15:51:47;;;;;;;3.00;1.55;;;;;;;;;;6260920;28;20594;-82
2022/01/27 15:54:49;;;;;;;2.97;2.00;;;;;;;;;;6264100;28;20623;-81
2022/01/27 15:57:51;;;;;;;2.10;1.42;;;;;;;;;;6265590;28;20068;-79
2022/01/27 16:00:53;;;;;;;2.92;1.80;;;;;;;;;;6263291;28;20040;-79
2022/01/27 16:03:55;;;;;;;4.65;1.90;;;;;;;;;;6264977;28;20041;-79
2022/01/27 16:06:57;;;;;;;2.70;1.48;;;;;;;;;;6264949;28;20535;-80
2022/01/27 16:09:58;;;;;;;7.93;1.88;;;;;;;;;;6277989;28;20094;-81
2022/01/27 16:13:00;;;;;;;4.57;2.10;;;;;;;;;;6280213;28;20038;-80
2022/01/27 16:16:02;;;;;;;3.33;2.20;;;;;;;;;;6267120;28;20048;-79
2022/01/27 16:19:04;;;;;;;1.67;1.40;;;;;;;;;;6267262;28;20421;-81
2022/01/27 16:22:10;;;;;;;3.70;2.20;;;;;;;;;;6267953;28;20045;-81
2022/01/27 16:25:14;;;;;;;3.05;1.75;;;;;;;;;;6274371;28;20042;-80
2022/01/27 16:28:18;;;;;;;1.77;1.50;;;;;;;;;;6271311;28;20628;-81
2022/01/27 16:31:20;;;;;;;3.35;2.20;;;;;;;;;;6243618;28;20103;-82
2022/01/27 16:34:21;;;;;;;3.70;1.98;;;;;;;;;;6264300;28;20135;-81
2022/01/27 16:37:23;;;;;;;3.03;1.50;;;;;;;;;;6264718;28;20132;-80
2022/01/27 16:40:25;;;;;;;3.70;1.42;;;;;;;;;;6264609;28;20067;-79
2022/01/27 16:43:27;;;;;;;2.60;1.70;;;;;;;;;;6264844;28;20265;-80
2022/01/27 16:46:29;;;;;;;1.90;1.15;;;;;;;;;;6280555;28;20119;-79
2022/01/27 16:49:32;;;;;;;4.22;1.52;;;;;;;;;;6288824;28;20057;-80
2022/01/27 16:52:34;;;;;;;3.15;1.70;;;;;;;;;;6281505;28;20108;-77
2022/01/27 16:55:35;;;;;;;2.15;1.48;;;;;;;;;;6282533;28;20044;-80
2022/01/27 16:58:37;;;;;;;2.58;2.00;;;;;;;;;;6265747;28;20505;-81
2022/01/27 17:01:39;;;;;;;2.55;1.95;;;;;;;;;;6263123;28;20550;-81
2022/01/27 17:04:43;;;;;;;3.20;2.20;;;;;;;;;;6263464;28;20494;-79
2022/01/27 17:07:45;;;;;;;2.20;1.38;;;;;;;;;;6263817;28;20056;-79
2022/01/27 17:10:50;;;;;;;3.72;1.88;;;;;;;;;;6258374;28;20045;-79
2022/01/27 17:13:52;;;;;;;4.47;2.15;;;;;;;;;;6260491;28;20693;-80
2022/01/27 17:16:55;;;;;;;3.58;2.20;;;;;;;;;;6263245;28;20041;-79
2022/01/27 17:19:58;;;;;;;;;;;;;;;;;;6278168;28;20037;-81
2022/01/27 17:23:00;;;;;;;2.55;2.15;;;;;;;;;;6263217;28;19928;-79
2022/01/27 17:26:06;;;;;;;4.25;2.35;;;;;;;;;;6262537;28;20657;-79
2022/01/27 17:29:08;;;;;;;4.88;2.50;;;;;;;;;;6263618;28;20047;-81
2022/01/27 17:32:10;;;;;;;4.63;2.97;;;;;;;;;;6276030;28;20051;-81
2022/01/27 17:35:13;;;;;;;7.72;4.00;;;;;;;;;;6257664;28;20053;-78
2022/01/27 17:38:15;;;;;;;10.05;4.03;;;;;;;;;;6260985;28;20047;-80
2022/01/27 17:41:26;;;;;;;6.22;3.38;;;;;;;;;;6261708;28;20166;-79
2022/01/27 17:44:29;;;;;;;10.50;5.95;;;;;;;;;;6257153;28;20516;-81
2022/01/27 17:47:31;;;;;;;10.95;5.20;;;;;;;;;;6257796;28;20123;-79
2022/01/27 17:50:32;;;;;;;11.95;6.53;;;;;;;;;;6256973;28;20199;-81
2022/01/27 17:53:36;;;;;;;9.85;5.30;;;;;;;;;;6254542;28;20502;-79
2022/01/27 17:56:38;;;;;;;10.35;5.28;;;;;;;;;;6255767;28;20055;-81
2022/01/27 17:59:40;;;;;;;7.30;4.55;;;;;;;;;;6247068;28;20033;-79
2022/01/27 18:02:41;;;;;;;10.98;5.55;;;;;;;;;;6266438;28;20509;-79
2022/01/27 18:05:43;;;;;;;11.10;5.63;;;;;;;;;;6284018;28;20131;-79
2022/01/27 18:08:45;;;;;;;11.48;6.22;;;;;;;;;;6254895;28;20093;-80
2022/01/27 18:11:47;;;;;;;9.18;5.03;;;;;;;;;;6241675;28;20560;-82
2022/01/27 18:14:49;;;;;;;15.60;6.65;;;;;;;;;;6262372;28;20094;-79
2022/01/27 18:17:51;;;;;;;11.10;5.65;;;;;;;;;;6255139;28;20176;-77
2022/01/27 18:20:52;;;;;;;13.27;7.10;;;;;;;;;;6261625;28;20049;-81
2022/01/27 18:23:55;;;;;;;12.30;6.13;;;;;;;;;;6254083;28;20044;-81
2022/01/27 18:26:57;;;;;;;11.97;6.67;;;;;;;;;;6277137;28;20120;-78
2022/01/27 18:29:58;;;;;;;13.10;6.65;;;;;;;;;;6264775;28;20044;-80
2022/01/27 18:33:00;;;;;;;11.48;6.55;;;;;;;;;;6265618;28;20505;-81
2022/01/27 18:36:02;;;;;;;15.27;7.57;;;;;;;;;;6260646;28;20047;-78
2022/01/27 18:39:04;;;;;;;12.63;6.47;;;;;;;;;;6266011;28;20041;-79
2022/01/27 18:42:09;;;;;;;15.10;7.07;;;;;;;;;;6277742;28;20044;-81
2022/01/27 18:45:14;;;;;;;15.63;7.72;;;;;;;;;;6265572;28;20037;-81
2022/01/27 18:48:16;;;;;;;9.25;5.78;;;;;;;;;;6276231;28;20387;-80
2022/01/27 18:51:21;;;;;;;8.93;4.50;;;;;;;;;;6287929;28;20512;-80
2022/01/27 18:54:23;;;;;;;8.18;3.97;;;;;;;;;;6279677;28;20514;-81
2022/01/27 18:57:25;;;;;;;8.02;4.10;;;;;;;;;;6215534;28;20051;-78
2022/01/27 19:00:26;;;;;;;8.20;4.03;;;;;;;;;;6261343;28;20049;-80
2022/01/27 19:03:29;;;;;;;5.88;3.42;;;;;;;;;;6262787;28;20045;-81
2022/01/27 19:06:30;;;;;;;6.20;3.67;;;;;;;;;;6278914;28;20060;-79
2022/01/27 19:09:37;;;;;;;7.65;3.58;;;;;;;;;;6275795;28;20045;-79